sensor_id;sensor_type;location;lat;lon;timestamp;pressure;altitude;pressure_sealevel;temperature;humidity
56582;BME280;42463;52.214;21.238;2023-04-06T00:01:53;100943.48;;;4.65;46.52
56582;BME280;42463;52.214;21.238;2023-04-06T00:03:57;100943.23;;;4.67;46.40
56582;BME280;42463;52.214;21.238;2023-04-06T00:06:01;100942.11;;;4.68;45.95
56582;BME280;42463;52.214;21.238;2023-04-06T00:08:05;100939.39;;;4.68;45.86
56582;BME280;42463;52.214;21.238;2023-04-06T00:10:10;100937.45;;;4.69;45.79
56582;BME280;42463;52.214;21.238;2023-04-06T00:12:14;100936.98;;;4.64;45.41
56582;BME280;42463;52.214;21.238;2023-04-06T00:14:18;100936.19;;;4.61;45.56
56582;BME280;42463;52.214;21.238;2023-04-06T00:16:23;100934.95;;;4.61;45.65
56582;BME280;42463;52.214;21.238;2023-04-06T00:18:27;100933.30;;;4.63;45.57
56582;BME280;42463;52.214;21.238;2023-04-06T00:20:31;100932.35;;;4.63;45.51
56582;BME280;42463;52.214;21.238;2023-04-06T00:22:35;100931.61;;;4.63;45.77
56582;BME280;42463;52.214;21.238;2023-04-06T00:24:39;100929.83;;;4.64;45.90
56582;BME280;42463;52.214;21.238;2023-04-06T00:26:43;100928.38;;;4.63;45.92
56582;BME280;42463;52.214;21.238;2023-04-06T00:28:48;100924.98;;;4.62;45.90
56582;BME280;42463;52.214;21.238;2023-04-06T00:30:54;100920.60;;;4.61;46.01
56582;BME280;42463;52.214;21.238;2023-04-06T00:33:00;100918.04;;;4.61;46.01
56582;BME280;42463;52.214;21.238;2023-04-06T00:35:05;100913.54;;;4.64;45.94
56582;BME280;42463;52.214;21.238;2023-04-06T00:37:10;100913.80;;;4.68;45.55
56582;BME280;42463;52.214;21.238;2023-04-06T00:39:15;100913.27;;;4.69;45.63
56582;BME280;42463;52.214;21.238;2023-04-06T00:41:19;100911.52;;;4.71;45.67
56582;BME280;42463;52.214;21.238;2023-04-06T00:43:24;100910.73;;;4.69;45.60
56582;BME280;42463;52.214;21.238;2023-04-06T00:45:28;100910.90;;;4.66;45.77
56582;BME280;42463;52.214;21.238;2023-04-06T00:47:33;100903.83;;;4.64;45.49
56582;BME280;42463;52.214;21.238;2023-04-06T00:49:37;100908.08;;;4.61;45.69
56582;BME280;42463;52.214;21.238;2023-04-06T00:51:41;100908.73;;;4.56;45.88
56582;BME280;42463;52.214;21.238;2023-04-06T00:53:45;100903.88;;;4.52;45.85
56582;BME280;42463;52.214;21.238;2023-04-06T00:55:49;100899.38;;;4.54;46.05
56582;BME280;42463;52.214;21.238;2023-04-06T00:57:54;100901.05;;;4.56;46.26
56582;BME280;42463;52.214;21.238;2023-04-06T01:00:01;100901.70;;;4.58;46.14
56582;BME280;42463;52.214;21.238;2023-04-06T01:02:42;100896.98;;;4.57;45.74
56582;BME280;42463;52.214;21.238;2023-04-06T01:04:49;100892.81;;;4.54;45.64
56582;BME280;42463;52.214;21.238;2023-04-06T01:07:01;100894.01;;;4.54;45.73
56582;BME280;42463;52.214;21.238;2023-04-06T01:09:11;100888.75;;;4.51;45.91
56582;BME280;42463;52.214;21.238;2023-04-06T01:11:16;100893.28;;;4.58;46.12
56582;BME280;42463;52.214;21.238;2023-04-06T01:13:21;100890.43;;;4.60;46.08
56582;BME280;42463;52.214;21.238;2023-04-06T01:15:35;100888.36;;;4.64;46.10
56582;BME280;42463;52.214;21.238;2023-04-06T01:17:43;100885.71;;;4.61;45.78
56582;BME280;42463;52.214;21.238;2023-04-06T01:19:50;100889.59;;;4.60;45.72
56582;BME280;42463;52.214;21.238;2023-04-06T01:22:02;100888.68;;;4.57;45.77
56582;BME280;42463;52.214;21.238;2023-04-06T01:24:07;100886.41;;;4.57;45.97
56582;BME280;42463;52.214;21.238;2023-04-06T01:26:23;100886.20;;;4.57;45.93
56582;BME280;42463;52.214;21.238;2023-04-06T01:28:28;100885.59;;;4.58;46.23
56582;BME280;42463;52.214;21.238;2023-04-06T01:30:50;100885.59;;;4.59;46.33
56582;BME280;42463;52.214;21.238;2023-04-06T01:33:12;100877.83;;;4.61;46.24
56582;BME280;42463;52.214;21.238;2023-04-06T01:35:32;100875.64;;;4.61;46.53
56582;BME280;42463;52.214;21.238;2023-04-06T01:37:52;100873.85;;;4.61;46.31
56582;BME280;42463;52.214;21.238;2023-04-06T01:40:01;100869.10;;;4.60;46.37
56582;BME280;42463;52.214;21.238;2023-04-06T01:42:16;100865.91;;;4.61;46.57
56582;BME280;42463;52.214;21.238;2023-04-06T01:44:23;100867.23;;;4.64;46.64
56582;BME280;42463;52.214;21.238;2023-04-06T01:46:35;100867.45;;;4.66;46.75
56582;BME280;42463;52.214;21.238;2023-04-06T01:48:40;100870.14;;;4.68;46.93
56582;BME280;42463;52.214;21.238;2023-04-06T01:50:52;100872.83;;;4.67;46.52
56582;BME280;42463;52.214;21.238;2023-04-06T01:53:00;100869.98;;;4.66;46.47
56582;BME280;42463;52.214;21.238;2023-04-06T01:55:05;100868.19;;;4.66;46.52
56582;BME280;42463;52.214;21.238;2023-04-06T01:57:26;100869.35;;;4.65;46.57
56582;BME280;42463;52.214;21.238;2023-04-06T01:59:41;100868.60;;;4.64;46.62
56582;BME280;42463;52.214;21.238;2023-04-06T02:01:51;100862.98;;;4.64;46.71
56582;BME280;42463;52.214;21.238;2023-04-06T02:03:56;100864.31;;;4.65;47.16
56582;BME280;42463;52.214;21.238;2023-04-06T02:06:01;100865.27;;;4.67;47.04
56582;BME280;42463;52.214;21.238;2023-04-06T02:08:10;100863.81;;;4.69;47.10
56582;BME280;42463;52.214;21.238;2023-04-06T02:10:14;100863.19;;;4.69;47.16
56582;BME280;42463;52.214;21.238;2023-04-06T02:12:19;100862.23;;;4.70;47.17
56582;BME280;42463;52.214;21.238;2023-04-06T02:14:24;100858.81;;;4.69;47.18
56582;BME280;42463;52.214;21.238;2023-04-06T02:16:30;100858.65;;;4.67;47.08
56582;BME280;42463;52.214;21.238;2023-04-06T02:18:34;100851.86;;;4.65;47.12
56582;BME280;42463;52.214;21.238;2023-04-06T02:20:39;100848.73;;;4.64;47.11
56582;BME280;42463;52.214;21.238;2023-04-06T02:22:43;100848.19;;;4.63;47.36
56582;BME280;42463;52.214;21.238;2023-04-06T02:24:47;100846.98;;;4.62;47.17
56582;BME280;42463;52.214;21.238;2023-04-06T02:26:51;100840.36;;;4.60;47.28
56582;BME280;42463;52.214;21.238;2023-04-06T02:28:56;100843.96;;;4.61;47.27
56582;BME280;42463;52.214;21.238;2023-04-06T02:31:00;100846.77;;;4.60;47.11
56582;BME280;42463;52.214;21.238;2023-04-06T02:33:04;100841.92;;;4.60;47.29
56582;BME280;42463;52.214;21.238;2023-04-06T02:35:16;100844.08;;;4.58;47.27
56582;BME280;42463;52.214;21.238;2023-04-06T02:37:24;100840.65;;;4.58;47.35
56582;BME280;42463;52.214;21.238;2023-04-06T02:39:29;100840.89;;;4.56;47.19
56582;BME280;42463;52.214;21.238;2023-04-06T02:41:34;100839.33;;;4.55;47.20
56582;BME280;42463;52.214;21.238;2023-04-06T02:43:39;100840.06;;;4.55;47.23
56582;BME280;42463;52.214;21.238;2023-04-06T02:45:51;100839.90;;;4.54;47.28
56582;BME280;42463;52.214;21.238;2023-04-06T02:47:57;100836.19;;;4.52;47.06
56582;BME280;42463;52.214;21.238;2023-04-06T02:50:01;100827.91;;;4.47;47.28
56582;BME280;42463;52.214;21.238;2023-04-06T02:52:07;100834.90;;;4.48;47.23
56582;BME280;42463;52.214;21.238;2023-04-06T02:54:12;100833.94;;;4.46;47.38
56582;BME280;42463;52.214;21.238;2023-04-06T02:56:16;100838.73;;;4.45;47.32
56582;BME280;42463;52.214;21.238;2023-04-06T02:58:24;100835.66;;;4.44;47.47
56582;BME280;42463;52.214;21.238;2023-04-06T03:00:30;100835.41;;;4.43;47.56
56582;BME280;42463;52.214;21.238;2023-04-06T03:02:34;100835.46;;;4.41;47.65
56582;BME280;42463;52.214;21.238;2023-04-06T03:04:43;100838.27;;;4.40;47.82
56582;BME280;42463;52.214;21.238;2023-04-06T03:06:56;100838.27;;;4.39;47.81
56582;BME280;42463;52.214;21.238;2023-04-06T03:09:09;100836.73;;;4.37;47.90
56582;BME280;42463;52.214;21.238;2023-04-06T03:11:17;100838.63;;;4.32;48.06
56582;BME280;42463;52.214;21.238;2023-04-06T03:13:21;100839.70;;;4.32;48.25
56582;BME280;42463;52.214;21.238;2023-04-06T03:15:29;100841.30;;;4.30;48.05
56582;BME280;42463;52.214;21.238;2023-04-06T03:17:40;100843.20;;;4.28;48.16
56582;BME280;42463;52.214;21.238;2023-04-06T03:19:49;100839.77;;;4.27;48.23
56582;BME280;42463;52.214;21.238;2023-04-06T03:21:53;100837.65;;;4.26;48.42
56582;BME280;42463;52.214;21.238;2023-04-06T03:23:58;100839.10;;;4.26;48.44
56582;BME280;42463;52.214;21.238;2023-04-06T03:26:04;100837.86;;;4.26;48.46
56582;BME280;42463;52.214;21.238;2023-04-06T03:28:12;100840.92;;;4.26;48.55
56582;BME280;42463;52.214;21.238;2023-04-06T03:30:23;100838.97;;;4.26;48.65
56582;BME280;42463;52.214;21.238;2023-04-06T03:32:30;100840.55;;;4.25;48.70
56582;BME280;42463;52.214;21.238;2023-04-06T03:34:35;100842.56;;;4.25;48.81
56582;BME280;42463;52.214;21.238;2023-04-06T03:36:39;100842.23;;;4.24;49.02
56582;BME280;42463;52.214;21.238;2023-04-06T03:38:43;100845.50;;;4.24;48.76
56582;BME280;42463;52.214;21.238;2023-04-06T03:40:49;100842.60;;;4.20;48.84
56582;BME280;42463;52.214;21.238;2023-04-06T03:42:56;100843.42;;;4.19;48.96
56582;BME280;42463;52.214;21.238;2023-04-06T03:45:01;100846.27;;;4.19;49.10
56582;BME280;42463;52.214;21.238;2023-04-06T03:47:06;100843.17;;;4.19;49.10
56582;BME280;42463;52.214;21.238;2023-04-06T03:49:10;100843.55;;;4.20;49.25
56582;BME280;42463;52.214;21.238;2023-04-06T03:51:16;100843.34;;;4.20;49.31
56582;BME280;42463;52.214;21.238;2023-04-06T03:53:20;100844.54;;;4.21;49.49
56582;BME280;42463;52.214;21.238;2023-04-06T03:55:24;100844.09;;;4.21;49.66
56582;BME280;42463;52.214;21.238;2023-04-06T03:57:28;100841.77;;;4.22;49.70
56582;BME280;42463;52.214;21.238;2023-04-06T03:59:34;100838.44;;;4.23;49.54
56582;BME280;42463;52.214;21.238;2023-04-06T04:01:38;100838.88;;;4.22;49.65
56582;BME280;42463;52.214;21.238;2023-04-06T04:03:43;100830.63;;;4.23;49.77
56582;BME280;42463;52.214;21.238;2023-04-06T04:05:48;100831.33;;;4.23;49.72
56582;BME280;42463;52.214;21.238;2023-04-06T04:07:52;100831.91;;;4.24;49.82
56582;BME280;42463;52.214;21.238;2023-04-06T04:09:59;100831.04;;;4.24;49.75
56582;BME280;42463;52.214;21.238;2023-04-06T04:12:03;100832.57;;;4.22;49.80
56582;BME280;42463;52.214;21.238;2023-04-06T04:14:08;100832.44;;;4.21;49.78
56582;BME280;42463;52.214;21.238;2023-04-06T04:16:12;100829.30;;;4.22;49.84
56582;BME280;42463;52.214;21.238;2023-04-06T04:18:18;100830.95;;;4.23;49.87
56582;BME280;42463;52.214;21.238;2023-04-06T04:20:23;100827.77;;;4.24;49.96
56582;BME280;42463;52.214;21.238;2023-04-06T04:22:27;100826.95;;;4.25;49.93
56582;BME280;42463;52.214;21.238;2023-04-06T04:24:31;100830.55;;;4.25;49.99
56582;BME280;42463;52.214;21.238;2023-04-06T04:26:36;100831.58;;;4.21;50.00
56582;BME280;42463;52.214;21.238;2023-04-06T04:28:40;100833.27;;;4.19;49.78
56582;BME280;42463;52.214;21.238;2023-04-06T04:30:44;100831.88;;;4.17;50.13
56582;BME280;42463;52.214;21.238;2023-04-06T04:32:49;100831.86;;;4.19;50.29
56582;BME280;42463;52.214;21.238;2023-04-06T04:34:56;100823.76;;;4.21;50.18
56582;BME280;42463;52.214;21.238;2023-04-06T04:37:08;100820.63;;;4.22;50.31
56582;BME280;42463;52.214;21.238;2023-04-06T04:39:22;100818.64;;;4.23;50.09
56582;BME280;42463;52.214;21.238;2023-04-06T04:41:33;100819.05;;;4.24;50.06
56582;BME280;42463;52.214;21.238;2023-04-06T04:43:37;100814.47;;;4.26;50.15
56582;BME280;42463;52.214;21.238;2023-04-06T04:45:42;100810.48;;;4.27;50.21
56582;BME280;42463;52.214;21.238;2023-04-06T04:47:53;100811.17;;;4.24;49.89
56582;BME280;42463;52.214;21.238;2023-04-06T04:49:59;100810.67;;;4.22;49.91
56582;BME280;42463;52.214;21.238;2023-04-06T04:52:04;100807.61;;;4.21;49.89
56582;BME280;42463;52.214;21.238;2023-04-06T04:54:17;100808.53;;;4.15;49.59
56582;BME280;42463;52.214;21.238;2023-04-06T04:56:22;100807.92;;;4.12;49.94
56582;BME280;42463;52.214;21.238;2023-04-06T04:58:29;100809.46;;;4.14;50.17
56582;BME280;42463;52.214;21.238;2023-04-06T05:00:35;100812.03;;;4.15;50.03
56582;BME280;42463;52.214;21.238;2023-04-06T05:02:39;100815.91;;;4.15;49.99
56582;BME280;42463;52.214;21.238;2023-04-06T05:04:50;100814.21;;;4.20;50.09
56582;BME280;42463;52.214;21.238;2023-04-06T05:07:05;100813.06;;;4.21;49.66
56582;BME280;42463;52.214;21.238;2023-04-06T05:09:09;100819.63;;;4.19;49.53
56582;BME280;42463;52.214;21.238;2023-04-06T05:11:16;100820.45;;;4.14;49.55
56582;BME280;42463;52.214;21.238;2023-04-06T05:13:24;100818.24;;;4.09;49.82
56582;BME280;42463;52.214;21.238;2023-04-06T05:15:28;100813.79;;;4.10;49.87
56582;BME280;42463;52.214;21.238;2023-04-06T05:17:37;100812.14;;;4.10;50.05
56582;BME280;42463;52.214;21.238;2023-04-06T05:19:42;100815.73;;;4.14;50.02
56582;BME280;42463;52.214;21.238;2023-04-06T05:21:46;100813.67;;;4.18;50.01
56582;BME280;42463;52.214;21.238;2023-04-06T05:23:50;100811.66;;;4.19;49.87
56582;BME280;42463;52.214;21.238;2023-04-06T05:25:55;100811.73;;;4.19;50.00
56582;BME280;42463;52.214;21.238;2023-04-06T05:27:59;100810.42;;;4.21;49.94
56582;BME280;42463;52.214;21.238;2023-04-06T05:30:12;100805.21;;;4.21;50.12
56582;BME280;42463;52.214;21.238;2023-04-06T05:32:20;100802.85;;;4.19;49.90
56582;BME280;42463;52.214;21.238;2023-04-06T05:34:27;100806.38;;;4.22;49.98
56582;BME280;42463;52.214;21.238;2023-04-06T05:36:32;100802.26;;;4.27;49.93
56582;BME280;42463;52.214;21.238;2023-04-06T05:38:37;100802.67;;;4.35;49.77
56582;BME280;42463;52.214;21.238;2023-04-06T05:40:50;100804.67;;;4.42;49.78
56582;BME280;42463;52.214;21.238;2023-04-06T05:42:56;100804.35;;;4.49;49.51
56582;BME280;42463;52.214;21.238;2023-04-06T05:45:00;100802.24;;;4.50;49.15
56582;BME280;42463;52.214;21.238;2023-04-06T05:47:05;100798.57;;;4.53;49.35
56582;BME280;42463;52.214;21.238;2023-04-06T05:49:09;100796.09;;;4.56;49.01
56582;BME280;42463;52.214;21.238;2023-04-06T05:51:13;100788.48;;;4.55;48.92
56582;BME280;42463;52.214;21.238;2023-04-06T05:53:23;100792.58;;;4.55;49.02
56582;BME280;42463;52.214;21.238;2023-04-06T05:55:32;100789.27;;;4.56;48.98
56582;BME280;42463;52.214;21.238;2023-04-06T05:57:47;100796.84;;;4.52;49.16
56582;BME280;42463;52.214;21.238;2023-04-06T05:59:52;100792.83;;;4.53;49.22
56582;BME280;42463;52.214;21.238;2023-04-06T06:01:57;100794.14;;;4.57;49.25
56582;BME280;42463;52.214;21.238;2023-04-06T06:04:01;100799.06;;;4.60;49.31
56582;BME280;42463;52.214;21.238;2023-04-06T06:06:07;100793.70;;;4.62;49.36
56582;BME280;42463;52.214;21.238;2023-04-06T06:08:20;100795.35;;;4.61;49.27
56582;BME280;42463;52.214;21.238;2023-04-06T06:13:28;100789.98;;;4.60;49.45
56582;BME280;42463;52.214;21.238;2023-04-06T06:15:32;100784.64;;;4.57;49.67
56582;BME280;42463;52.214;21.238;2023-04-06T06:17:38;100788.02;;;4.61;49.68
56582;BME280;42463;52.214;21.238;2023-04-06T06:19:43;100783.41;;;4.64;49.60
56582;BME280;42463;52.214;21.238;2023-04-06T06:21:47;100787.98;;;4.65;49.67
56582;BME280;42463;52.214;21.238;2023-04-06T06:23:51;100788.52;;;4.67;49.69
56582;BME280;42463;52.214;21.238;2023-04-06T06:25:57;100788.45;;;4.68;49.89
56582;BME280;42463;52.214;21.238;2023-04-06T06:28:02;100789.89;;;4.61;49.64
56582;BME280;42463;52.214;21.238;2023-04-06T06:30:08;100787.24;;;4.52;49.81
56582;BME280;42463;52.214;21.238;2023-04-06T06:32:14;100779.30;;;4.45;50.03
56582;BME280;42463;52.214;21.238;2023-04-06T06:34:19;100784.39;;;4.54;50.02
56582;BME280;42463;52.214;21.238;2023-04-06T06:36:23;100782.13;;;4.56;50.19
56582;BME280;42463;52.214;21.238;2023-04-06T06:38:28;100778.69;;;4.57;50.25
56582;BME280;42463;52.214;21.238;2023-04-06T06:40:33;100777.90;;;4.59;50.20
56582;BME280;42463;52.214;21.238;2023-04-06T06:42:38;100780.50;;;4.58;50.37
56582;BME280;42463;52.214;21.238;2023-04-06T06:44:51;100778.07;;;4.62;50.64
56582;BME280;42463;52.214;21.238;2023-04-06T06:46:55;100778.73;;;4.69;50.78
56582;BME280;42463;52.214;21.238;2023-04-06T06:48:59;100775.26;;;4.68;50.55
56582;BME280;42463;52.214;21.238;2023-04-06T06:51:04;100777.53;;;4.66;50.85
56582;BME280;42463;52.214;21.238;2023-04-06T06:53:08;100774.69;;;4.63;50.81
56582;BME280;42463;52.214;21.238;2023-04-06T06:55:14;100778.89;;;4.65;51.00
56582;BME280;42463;52.214;21.238;2023-04-06T06:57:18;100774.72;;;4.71;51.09
56582;BME280;42463;52.214;21.238;2023-04-06T06:59:23;100774.02;;;4.76;51.37
56582;BME280;42463;52.214;21.238;2023-04-06T07:01:27;100777.70;;;4.80;50.99
56582;BME280;42463;52.214;21.238;2023-04-06T07:03:32;100779.27;;;4.79;50.96
56582;BME280;42463;52.214;21.238;2023-04-06T07:05:36;100772.15;;;4.84;51.07
56582;BME280;42463;52.214;21.238;2023-04-06T07:07:41;100772.17;;;4.87;50.88
56582;BME280;42463;52.214;21.238;2023-04-06T07:09:45;100776.77;;;4.85;50.94
56582;BME280;42463;52.214;21.238;2023-04-06T07:11:49;100770.55;;;4.80;50.90
56582;BME280;42463;52.214;21.238;2023-04-06T07:13:53;100765.58;;;4.77;50.98
56582;BME280;42463;52.214;21.238;2023-04-06T07:15:58;100768.19;;;4.79;50.96
56582;BME280;42463;52.214;21.238;2023-04-06T07:18:03;100765.58;;;4.78;51.07
56582;BME280;42463;52.214;21.238;2023-04-06T07:20:08;100769.34;;;4.80;51.06
56582;BME280;42463;52.214;21.238;2023-04-06T07:22:12;100770.37;;;4.79;50.94
56582;BME280;42463;52.214;21.238;2023-04-06T07:24:16;100768.10;;;4.73;51.27
56582;BME280;42463;52.214;21.238;2023-04-06T07:26:21;100770.09;;;4.72;51.30
56582;BME280;42463;52.214;21.238;2023-04-06T07:28:25;100771.87;;;4.74;51.62
56582;BME280;42463;52.214;21.238;2023-04-06T07:30:30;100765.09;;;4.76;51.67
56582;BME280;42463;52.214;21.238;2023-04-06T07:32:35;100767.41;;;4.74;51.73
56582;BME280;42463;52.214;21.238;2023-04-06T07:34:40;100769.84;;;4.80;51.82
56582;BME280;42463;52.214;21.238;2023-04-06T07:36:44;100768.91;;;4.88;51.46
56582;BME280;42463;52.214;21.238;2023-04-06T07:38:48;100770.98;;;4.87;50.93
56582;BME280;42463;52.214;21.238;2023-04-06T07:40:53;100769.59;;;4.84;51.03
56582;BME280;42463;52.214;21.238;2023-04-06T07:42:57;100765.21;;;4.80;51.48
56582;BME280;42463;52.214;21.238;2023-04-06T07:45:02;100767.45;;;4.74;51.71
56582;BME280;42463;52.214;21.238;2023-04-06T07:47:06;100763.67;;;4.62;52.07
56582;BME280;42463;52.214;21.238;2023-04-06T07:49:10;100762.89;;;4.60;52.65
56582;BME280;42463;52.214;21.238;2023-04-06T07:51:15;100761.58;;;4.63;53.12
56582;BME280;42463;52.214;21.238;2023-04-06T07:53:21;100759.97;;;4.65;53.55
56582;BME280;42463;52.214;21.238;2023-04-06T07:55:26;100764.38;;;4.69;53.61
56582;BME280;42463;52.214;21.238;2023-04-06T07:57:31;100763.55;;;4.72;54.18
56582;BME280;42463;52.214;21.238;2023-04-06T07:59:35;100759.17;;;4.73;54.53
56582;BME280;42463;52.214;21.238;2023-04-06T08:01:40;100752.47;;;4.77;54.76
56582;BME280;42463;52.214;21.238;2023-04-06T08:03:44;100751.27;;;4.88;54.99
56582;BME280;42463;52.214;21.238;2023-04-06T08:05:48;100755.43;;;4.95;54.64
56582;BME280;42463;52.214;21.238;2023-04-06T08:07:53;100755.99;;;5.04;54.69
56582;BME280;42463;52.214;21.238;2023-04-06T08:09:57;100755.30;;;5.13;54.39
56582;BME280;42463;52.214;21.238;2023-04-06T08:12:01;100756.92;;;5.14;54.20
56582;BME280;42463;52.214;21.238;2023-04-06T08:14:05;100754.02;;;5.17;54.02
56582;BME280;42463;52.214;21.238;2023-04-06T08:16:10;100755.42;;;5.17;54.20
56582;BME280;42463;52.214;21.238;2023-04-06T08:18:14;100757.79;;;5.11;53.88
56582;BME280;42463;52.214;21.238;2023-04-06T08:20:18;100752.14;;;5.10;53.59
56582;BME280;42463;52.214;21.238;2023-04-06T08:22:22;100754.74;;;5.06;53.92
56582;BME280;42463;52.214;21.238;2023-04-06T08:24:26;100744.13;;;5.02;53.79
56582;BME280;42463;52.214;21.238;2023-04-06T08:26:30;100742.25;;;5.06;54.04
56582;BME280;42463;52.214;21.238;2023-04-06T08:28:34;100745.32;;;5.06;53.99
56582;BME280;42463;52.214;21.238;2023-04-06T08:30:40;100746.73;;;5.04;54.15
56582;BME280;42463;52.214;21.238;2023-04-06T08:32:44;100749.13;;;5.03;54.20
56582;BME280;42463;52.214;21.238;2023-04-06T08:34:48;100744.36;;;5.05;54.23
56582;BME280;42463;52.214;21.238;2023-04-06T08:36:53;100744.38;;;5.01;54.22
56582;BME280;42463;52.214;21.238;2023-04-06T08:38:58;100742.44;;;4.93;54.01
56582;BME280;42463;52.214;21.238;2023-04-06T08:41:07;100740.80;;;4.84;54.36
56582;BME280;42463;52.214;21.238;2023-04-06T08:43:14;100737.08;;;4.87;54.79
56582;BME280;42463;52.214;21.238;2023-04-06T08:45:18;100736.73;;;4.94;54.97
56582;BME280;42463;52.214;21.238;2023-04-06T08:47:24;100735.45;;;4.98;55.76
56582;BME280;42463;52.214;21.238;2023-04-06T08:49:28;100737.34;;;5.01;55.63
56582;BME280;42463;52.214;21.238;2023-04-06T08:51:32;100733.45;;;5.05;55.60
56582;BME280;42463;52.214;21.238;2023-04-06T08:53:37;100734.84;;;5.09;56.00
56582;BME280;42463;52.214;21.238;2023-04-06T08:55:41;100738.14;;;5.10;55.92
56582;BME280;42463;52.214;21.238;2023-04-06T08:57:46;100738.73;;;5.04;55.98
56582;BME280;42463;52.214;21.238;2023-04-06T08:59:51;100737.17;;;5.00;55.87
56582;BME280;42463;52.214;21.238;2023-04-06T09:01:56;100727.91;;;5.02;56.45
56582;BME280;42463;52.214;21.238;2023-04-06T09:04:02;100719.30;;;5.03;56.74
56582;BME280;42463;52.214;21.238;2023-04-06T09:06:08;100714.86;;;5.08;56.97
56582;BME280;42463;52.214;21.238;2023-04-06T09:08:12;100709.84;;;5.14;56.97
56582;BME280;42463;52.214;21.238;2023-04-06T09:10:17;100707.51;;;5.19;56.82
56582;BME280;42463;52.214;21.238;2023-04-06T09:12:25;100706.23;;;5.17;56.90
56582;BME280;42463;52.214;21.238;2023-04-06T09:14:35;100703.30;;;5.14;57.02
56582;BME280;42463;52.214;21.238;2023-04-06T09:16:41;100701.48;;;5.16;57.19
56582;BME280;42463;52.214;21.238;2023-04-06T09:18:45;100698.98;;;5.16;57.22
56582;BME280;42463;52.214;21.238;2023-04-06T09:20:57;100700.65;;;5.17;56.99
56582;BME280;42463;52.214;21.238;2023-04-06T09:23:01;100696.77;;;5.13;56.64
56582;BME280;42463;52.214;21.238;2023-04-06T09:25:07;100698.80;;;5.13;57.04
56582;BME280;42463;52.214;21.238;2023-04-06T09:27:12;100697.51;;;5.14;57.23
56582;BME280;42463;52.214;21.238;2023-04-06T09:29:23;100697.22;;;5.16;57.30
56582;BME280;42463;52.214;21.238;2023-04-06T09:31:30;100693.70;;;5.15;57.71
56582;BME280;42463;52.214;21.238;2023-04-06T09:33:38;100694.70;;;5.09;57.71
56582;BME280;42463;52.214;21.238;2023-04-06T09:35:48;100689.27;;;5.02;57.72
56582;BME280;42463;52.214;21.238;2023-04-06T09:37:53;100685.19;;;4.95;57.91
56582;BME280;42463;52.214;21.238;2023-04-06T09:40:03;100682.77;;;4.91;58.25
56582;BME280;42463;52.214;21.238;2023-04-06T09:42:08;100678.73;;;4.87;58.75
56582;BME280;42463;52.214;21.238;2023-04-06T09:44:12;100675.36;;;4.90;59.25
56582;BME280;42463;52.214;21.238;2023-04-06T09:46:16;100678.17;;;4.95;59.33
56582;BME280;42463;52.214;21.238;2023-04-06T09:48:21;100676.43;;;4.97;59.07
56582;BME280;42463;52.214;21.238;2023-04-06T09:50:26;100679.23;;;4.98;59.05
56582;BME280;42463;52.214;21.238;2023-04-06T09:52:31;100672.45;;;4.96;59.14
56582;BME280;42463;52.214;21.238;2023-04-06T09:54:36;100666.05;;;4.95;59.31
56582;BME280;42463;52.214;21.238;2023-04-06T09:56:43;100665.71;;;4.97;59.51
56582;BME280;42463;52.214;21.238;2023-04-06T09:58:49;100661.04;;;4.99;59.48
56582;BME280;42463;52.214;21.238;2023-04-06T10:00:57;100660.20;;;4.99;59.86
56582;BME280;42463;52.214;21.238;2023-04-06T10:03:04;100659.11;;;5.02;60.05
56582;BME280;42463;52.214;21.238;2023-04-06T10:05:16;100653.94;;;5.02;59.98
56582;BME280;42463;52.214;21.238;2023-04-06T10:07:21;100656.73;;;4.99;59.63
56582;BME280;42463;52.214;21.238;2023-04-06T10:09:27;100653.90;;;4.93;59.84
56582;BME280;42463;52.214;21.238;2023-04-06T10:11:32;100657.81;;;4.95;59.94
56582;BME280;42463;52.214;21.238;2023-04-06T10:13:37;100660.59;;;4.94;60.15
56582;BME280;42463;52.214;21.238;2023-04-06T10:15:41;100659.14;;;4.94;60.34
56582;BME280;42463;52.214;21.238;2023-04-06T10:17:46;100660.64;;;4.94;60.30
56582;BME280;42463;52.214;21.238;2023-04-06T10:19:51;100657.23;;;4.94;60.25
56582;BME280;42463;52.214;21.238;2023-04-06T10:21:56;100656.91;;;4.94;60.30
56582;BME280;42463;52.214;21.238;2023-04-06T10:24:06;100654.44;;;4.92;60.52
56582;BME280;42463;52.214;21.238;2023-04-06T10:26:13;100657.63;;;4.91;60.40
56582;BME280;42463;52.214;21.238;2023-04-06T10:28:19;100653.61;;;4.92;60.70
56582;BME280;42463;52.214;21.238;2023-04-06T10:30:26;100653.48;;;4.90;60.99
56582;BME280;42463;52.214;21.238;2023-04-06T10:32:35;100652.59;;;4.89;61.03
56582;BME280;42463;52.214;21.238;2023-04-06T10:34:40;100653.38;;;4.88;60.76
56582;BME280;42463;52.214;21.238;2023-04-06T10:36:44;100650.55;;;4.89;60.82
56582;BME280;42463;52.214;21.238;2023-04-06T10:38:53;100642.94;;;4.92;61.07
56582;BME280;42463;52.214;21.238;2023-04-06T10:40:58;100641.44;;;4.95;60.80
56582;BME280;42463;52.214;21.238;2023-04-06T10:43:10;100639.98;;;4.97;60.78
56582;BME280;42463;52.214;21.238;2023-04-06T10:45:23;100638.88;;;4.97;60.75
56582;BME280;42463;52.214;21.238;2023-04-06T10:47:27;100631.83;;;5.00;60.98
56582;BME280;42463;52.214;21.238;2023-04-06T10:49:42;100635.98;;;5.05;60.97
56582;BME280;42463;52.214;21.238;2023-04-06T10:51:50;100629.48;;;5.09;61.02
56582;BME280;42463;52.214;21.238;2023-04-06T10:53:55;100635.44;;;5.07;60.62
56582;BME280;42463;52.214;21.238;2023-04-06T10:55:59;100629.94;;;5.07;60.75
56582;BME280;42463;52.214;21.238;2023-04-06T10:58:06;100629.73;;;5.08;60.73
56582;BME280;42463;52.214;21.238;2023-04-06T11:00:12;100624.91;;;5.11;60.67
56582;BME280;42463;52.214;21.238;2023-04-06T11:02:22;100621.73;;;5.13;60.66
56582;BME280;42463;52.214;21.238;2023-04-06T11:04:26;100618.67;;;5.10;60.54